createdAt,value
2023-01-22T00:01:01.387Z,8.73
2023-01-22T00:03:27.763Z,8.27
2023-01-22T00:05:54.093Z,8.00
2023-01-22T00:08:20.645Z,8.47
2023-01-22T00:10:50.626Z,8.57
2023-01-22T00:13:17.067Z,9.20
2023-01-22T00:15:43.412Z,10.23
2023-01-22T00:18:10.042Z,8.50
2023-01-22T00:20:36.437Z,8.17
2023-01-22T00:23:02.767Z,8.87
2023-01-22T00:25:29.101Z,8.30
2023-01-22T00:27:55.589Z,8.40
2023-01-22T00:30:21.983Z,8.13
2023-01-22T00:32:48.344Z,7.77
2023-01-22T00:35:14.791Z,7.93
2023-01-22T00:37:41.086Z,8.27
2023-01-22T00:40:07.622Z,7.57
2023-01-22T00:42:34.039Z,7.83
2023-01-22T00:45:00.448Z,8.20
2023-01-22T00:47:26.766Z,8.27
2023-01-22T00:49:53.183Z,7.43
2023-01-22T00:52:19.477Z,7.57
2023-01-22T00:54:45.932Z,8.30
2023-01-22T00:57:12.213Z,7.97
2023-01-22T00:59:38.533Z,7.73
2023-01-22T01:02:06.616Z,8.17
2023-01-22T01:04:33.024Z,7.03
2023-01-22T01:06:59.378Z,7.20
2023-01-22T01:09:25.714Z,7.70
2023-01-22T01:11:52.041Z,6.77
2023-01-22T01:14:18.357Z,8.17
2023-01-22T01:16:44.738Z,7.10
2023-01-22T01:19:12.038Z,7.57
2023-01-22T01:21:38.877Z,8.33
2023-01-22T01:24:05.708Z,6.93
2023-01-22T01:26:33.458Z,7.80
2023-01-22T01:28:59.761Z,7.87
2023-01-22T01:31:26.551Z,7.60
2023-01-22T01:33:52.945Z,7.80
2023-01-22T01:36:35.249Z,7.60
2023-01-22T01:39:02.750Z,7.70
2023-01-22T01:41:29.050Z,8.67
2023-01-22T01:44:08.820Z,7.50
2023-01-22T01:46:36.914Z,7.60
2023-01-22T01:49:03.346Z,7.00
2023-01-22T01:51:35.542Z,6.77
2023-01-22T01:54:03.164Z,7.57
2023-01-22T01:56:39.396Z,7.63
2023-01-22T01:59:07.338Z,6.63
2023-01-22T02:01:33.651Z,6.73
2023-01-22T02:04:00.490Z,7.20
2023-01-22T02:06:27.034Z,7.50
2023-01-22T02:08:55.040Z,6.97
2023-01-22T02:11:21.964Z,7.30
2023-01-22T02:13:51.482Z,6.13
2023-01-22T02:16:17.984Z,6.87
2023-01-22T02:18:44.253Z,7.00
2023-01-22T02:21:28.569Z,7.23
2023-01-22T02:23:54.985Z,7.20
2023-01-22T02:26:21.381Z,6.90
2023-01-22T02:28:47.725Z,7.60
2023-01-22T02:31:14.332Z,7.30
2023-01-22T02:33:40.686Z,7.10
2023-01-22T02:36:07.256Z,7.60
2023-01-22T02:38:33.632Z,7.00
2023-01-22T02:41:00.317Z,6.70
2023-01-22T02:43:26.617Z,7.30
2023-01-22T02:45:53.475Z,6.97
2023-01-22T02:48:19.847Z,6.30
2023-01-22T02:50:46.449Z,5.87
2023-01-22T02:53:13.215Z,6.40
2023-01-22T02:55:39.660Z,7.13
2023-01-22T02:58:06.002Z,7.30
2023-01-22T03:00:32.447Z,6.37
2023-01-22T03:02:58.748Z,7.47
2023-01-22T03:05:25.392Z,7.17
2023-01-22T03:07:51.716Z,6.47
2023-01-22T03:10:19.394Z,5.43
2023-01-22T03:13:05.223Z,6.73
2023-01-22T03:15:52.475Z,6.87
2023-01-22T03:18:37.459Z,6.00
2023-01-22T03:21:14.189Z,6.30
2023-01-22T03:23:40.668Z,6.27
2023-01-22T03:26:07.486Z,6.23
2023-01-22T03:28:34.144Z,7.03
2023-01-22T03:31:00.544Z,5.93
2023-01-22T03:33:26.993Z,6.17
2023-01-22T03:35:53.293Z,6.80
2023-01-22T03:38:19.607Z,6.13
2023-01-22T03:40:46.011Z,6.30
2023-01-22T03:43:12.414Z,5.37
2023-01-22T03:45:38.857Z,5.73
2023-01-22T03:48:05.381Z,5.83
2023-01-22T03:50:31.875Z,5.47
2023-01-22T03:52:58.225Z,6.03
2023-01-22T03:55:25.566Z,6.03
2023-01-22T03:57:51.877Z,6.10
2023-01-22T04:00:18.626Z,5.97
2023-01-22T04:02:45.155Z,5.83
2023-01-22T04:05:12.549Z,5.80
2023-01-22T04:07:38.890Z,5.43
2023-01-22T04:10:05.451Z,5.30
2023-01-22T04:12:31.863Z,4.87
2023-01-22T04:14:58.134Z,5.87
2023-01-22T04:17:26.638Z,5.57
2023-01-22T04:19:53.205Z,5.03
2023-01-22T04:22:19.506Z,5.60
2023-01-22T04:24:45.788Z,6.10
2023-01-22T04:27:12.181Z,4.87
2023-01-22T04:29:38.499Z,5.50
2023-01-22T04:32:04.886Z,5.93
2023-01-22T04:34:31.258Z,5.17
2023-01-22T04:36:57.627Z,5.50
2023-01-22T04:39:23.910Z,5.10
2023-01-22T04:41:50.203Z,5.00
2023-01-22T04:44:16.576Z,5.63
2023-01-22T04:46:42.892Z,5.50
2023-01-22T04:49:09.289Z,4.63
2023-01-22T04:51:35.691Z,5.07
2023-01-22T04:54:02.002Z,4.73
2023-01-22T04:56:28.297Z,5.40
2023-01-22T04:58:54.578Z,4.03
2023-01-22T05:01:20.940Z,4.70
2023-01-22T05:03:47.326Z,4.73
2023-01-22T05:06:13.706Z,5.47
2023-01-22T05:08:40.003Z,4.60
2023-01-22T05:11:06.328Z,4.40
2023-01-22T05:13:32.688Z,5.63
2023-01-22T05:15:59.155Z,4.40
2023-01-22T05:18:25.471Z,5.00
2023-01-22T05:20:51.920Z,5.10
2023-01-22T05:23:18.263Z,4.70
2023-01-22T05:25:49.201Z,5.17
2023-01-22T05:28:15.527Z,4.77
2023-01-22T05:30:41.932Z,3.90
2023-01-22T05:33:11.259Z,4.30
2023-01-22T05:35:37.854Z,4.30
2023-01-22T05:38:04.152Z,5.80
2023-01-22T05:40:30.491Z,3.90
2023-01-22T05:42:56.899Z,4.80
2023-01-22T05:45:23.343Z,3.90
2023-01-22T05:47:53.661Z,4.90
2023-01-22T05:50:20.688Z,5.30
2023-01-22T05:52:47.194Z,5.23
2023-01-22T05:55:13.637Z,4.70
2023-01-22T05:57:39.925Z,5.13
2023-01-22T06:00:06.655Z,5.10
2023-01-22T06:02:33.018Z,5.13
2023-01-22T06:04:59.408Z,4.83
2023-01-22T06:07:25.805Z,5.00
2023-01-22T06:09:52.126Z,5.17
2023-01-22T06:12:18.566Z,4.70
2023-01-22T06:14:44.911Z,4.93
2023-01-22T06:17:11.330Z,5.40
2023-01-22T06:19:37.701Z,4.50
2023-01-22T06:22:04.013Z,4.60
2023-01-22T06:24:30.366Z,5.23
2023-01-22T06:26:57.615Z,4.77
2023-01-22T06:29:23.887Z,5.27
2023-01-22T06:31:50.234Z,4.67
2023-01-22T06:34:16.724Z,4.27
2023-01-22T06:36:44.175Z,5.33
2023-01-22T06:39:10.544Z,4.90
2023-01-22T06:41:36.943Z,4.63
2023-01-22T06:44:03.341Z,5.93
2023-01-22T06:46:29.755Z,5.83
2023-01-22T06:48:56.475Z,5.90
2023-01-22T06:51:22.999Z,5.23
2023-01-22T06:53:49.398Z,5.33
2023-01-22T06:56:15.729Z,5.57
2023-01-22T06:58:42.073Z,5.60
2023-01-22T07:01:09.670Z,6.20
2023-01-22T07:03:36.013Z,5.40
2023-01-22T07:06:03.593Z,5.70
2023-01-22T07:08:30.823Z,5.90
2023-01-22T07:10:57.242Z,5.30
2023-01-22T07:13:23.528Z,5.70
2023-01-22T07:15:49.850Z,6.60
2023-01-22T07:18:19.624Z,5.17
2023-01-22T07:20:47.215Z,5.30
2023-01-22T07:23:13.858Z,5.80
2023-01-22T07:25:40.253Z,5.90
2023-01-22T07:28:07.308Z,4.93
2023-01-22T07:30:33.692Z,5.53
2023-01-22T07:33:01.485Z,5.37
2023-01-22T07:35:28.319Z,5.37
2023-01-22T07:37:55.344Z,4.30
2023-01-22T07:40:21.741Z,5.03
2023-01-22T07:42:48.096Z,5.80
2023-01-22T07:45:14.557Z,5.17
2023-01-22T07:47:40.861Z,4.97
2023-01-22T07:50:07.589Z,4.73
2023-01-22T07:52:33.884Z,4.93
2023-01-22T07:55:00.185Z,4.03
2023-01-22T07:57:26.597Z,5.07
2023-01-22T07:59:52.891Z,4.27
2023-01-22T08:02:19.275Z,4.80
2023-01-22T08:04:45.609Z,4.37
2023-01-22T08:07:14.615Z,4.23
2023-01-22T08:09:40.916Z,4.87
2023-01-22T08:12:07.240Z,4.37
2023-01-22T08:14:33.526Z,4.77
2023-01-22T08:16:59.900Z,3.73
2023-01-22T08:19:26.251Z,4.10
2023-01-22T08:21:52.562Z,4.07
2023-01-22T08:24:18.881Z,4.40
2023-01-22T08:26:45.477Z,3.63
2023-01-22T08:29:11.855Z,3.73
2023-01-22T08:31:38.174Z,4.93
2023-01-22T08:34:04.756Z,4.80
2023-01-22T08:36:31.073Z,4.07
2023-01-22T08:38:57.470Z,4.90
2023-01-22T08:41:23.917Z,4.23
2023-01-22T08:43:51.408Z,3.93
2023-01-22T08:46:17.906Z,4.20
2023-01-22T08:48:44.462Z,5.10
2023-01-22T08:51:11.756Z,4.23
2023-01-22T08:53:38.151Z,3.67
2023-01-22T08:56:04.657Z,3.90
2023-01-22T08:58:31.051Z,3.80
2023-01-22T09:00:57.433Z,4.73
2023-01-22T09:03:24.130Z,4.60
2023-01-22T09:05:53.429Z,4.90
2023-01-22T09:08:20.373Z,4.43
2023-01-22T09:10:46.715Z,3.77
2023-01-22T09:13:13.042Z,4.70
2023-01-22T09:15:40.229Z,4.77
2023-01-22T09:18:06.959Z,4.07
2023-01-22T09:20:33.309Z,4.40
2023-01-22T09:22:59.661Z,4.10
2023-01-22T09:25:26.401Z,4.70
2023-01-22T09:27:57.952Z,4.33
2023-01-22T09:30:26.350Z,3.80
2023-01-22T09:32:52.904Z,4.03
2023-01-22T09:35:19.241Z,3.80
2023-01-22T09:37:45.558Z,3.90
2023-01-22T09:40:23.055Z,3.80
2023-01-22T09:42:49.610Z,4.10
2023-01-22T09:45:16.643Z,4.57
2023-01-22T09:47:47.466Z,3.20
2023-01-22T09:50:28.049Z,4.57
2023-01-22T09:52:56.933Z,3.77
2023-01-22T09:55:24.667Z,4.73
2023-01-22T09:57:55.643Z,4.43
2023-01-22T10:00:22.174Z,4.40
2023-01-22T10:02:51.240Z,4.80
2023-01-22T10:05:20.769Z,4.60
2023-01-22T10:07:50.959Z,3.80
2023-01-22T10:10:17.503Z,4.00
2023-01-22T10:12:44.621Z,3.40
2023-01-22T10:15:14.144Z,3.57
2023-01-22T10:17:41.005Z,4.40
2023-01-22T10:20:08.272Z,4.90
2023-01-22T10:22:34.581Z,4.63
2023-01-22T10:25:01.050Z,4.37
2023-01-22T10:27:35.136Z,5.00
2023-01-22T10:30:01.426Z,4.23
2023-01-22T10:32:28.598Z,4.60
2023-01-22T10:35:05.011Z,3.93
2023-01-22T10:37:42.169Z,4.43
2023-01-22T10:40:20.120Z,4.13
2023-01-22T10:42:46.605Z,4.30
2023-01-22T10:45:15.786Z,4.27
2023-01-22T10:47:42.189Z,4.40
2023-01-22T10:50:15.380Z,4.47
2023-01-22T10:52:43.168Z,4.43
2023-01-22T10:55:21.556Z,5.10
2023-01-22T10:57:50.486Z,4.63
2023-01-22T11:00:17.230Z,4.17
2023-01-22T11:02:45.915Z,4.97
2023-01-22T11:05:19.617Z,4.10
2023-01-22T11:07:47.654Z,3.77
2023-01-22T11:10:32.425Z,3.83
2023-01-22T11:13:15.435Z,3.70
2023-01-22T11:15:47.040Z,2.90
2023-01-22T11:18:18.256Z,3.40
2023-01-22T11:20:44.571Z,3.37
2023-01-22T11:23:10.871Z,3.80
2023-01-22T11:25:41.547Z,3.53
2023-01-22T11:28:12.366Z,3.23
2023-01-22T11:30:48.723Z,3.00
2023-01-22T11:33:28.830Z,3.50
2023-01-22T11:36:17.900Z,3.13
2023-01-22T11:38:47.637Z,3.43
2023-01-22T11:41:20.100Z,3.73
2023-01-22T11:43:55.512Z,3.63
2023-01-22T11:46:25.052Z,3.53
2023-01-22T11:48:57.415Z,3.73
2023-01-22T11:51:29.700Z,3.67
2023-01-22T11:54:14.606Z,4.27
2023-01-22T11:56:40.918Z,4.20
2023-01-22T11:59:10.363Z,3.93
2023-01-22T12:01:52.097Z,3.40
2023-01-22T12:04:30.709Z,3.50
2023-01-22T12:06:57.192Z,3.57
2023-01-22T12:09:29.337Z,4.50
2023-01-22T12:12:13.117Z,3.47
2023-01-22T12:14:58.264Z,3.63
2023-01-22T12:17:30.570Z,3.40
2023-01-22T12:20:18.330Z,3.73
2023-01-22T12:22:52.167Z,3.23
2023-01-22T12:25:37.615Z,3.93
2023-01-22T12:28:10.224Z,3.70
2023-01-22T12:30:45.443Z,3.00
2023-01-22T12:33:13.520Z,3.77
2023-01-22T12:35:40.106Z,3.37
2023-01-22T12:38:21.811Z,4.17
2023-01-22T12:41:06.472Z,3.23
2023-01-22T12:43:53.024Z,3.83
2023-01-22T12:46:38.264Z,3.90
2023-01-22T12:49:11.880Z,4.27
2023-01-22T12:51:38.170Z,3.63
2023-01-22T12:54:18.714Z,3.70
2023-01-22T12:56:45.063Z,4.20
2023-01-22T12:59:30.092Z,3.93
2023-01-22T13:02:00.683Z,3.90
2023-01-22T13:04:31.391Z,3.07
2023-01-22T13:07:18.731Z,4.33
2023-01-22T13:09:45.087Z,3.90
2023-01-22T13:12:24.957Z,4.27
2023-01-22T13:14:51.760Z,3.83
2023-01-22T13:17:22.183Z,4.10
2023-01-22T13:19:50.492Z,4.20
2023-01-22T13:22:21.716Z,3.43
2023-01-22T13:24:49.528Z,4.73
2023-01-22T13:27:22.138Z,4.00
2023-01-22T13:29:48.498Z,3.73
2023-01-22T13:32:22.202Z,4.07
2023-01-22T13:34:48.849Z,3.97
2023-01-22T13:37:22.299Z,3.83
2023-01-22T13:39:48.872Z,3.70
2023-01-22T13:42:15.279Z,4.00
2023-01-22T13:44:44.812Z,4.40
2023-01-22T13:47:25.552Z,4.00
2023-01-22T13:49:51.900Z,3.77
2023-01-22T13:52:20.014Z,3.30
2023-01-22T13:54:49.105Z,3.90
2023-01-22T13:57:21.477Z,3.30
2023-01-22T13:59:53.577Z,3.80
2023-01-22T14:02:21.951Z,3.90
2023-01-22T14:04:48.844Z,3.87
2023-01-22T14:07:24.016Z,3.90
2023-01-22T14:09:50.412Z,4.53
2023-01-22T14:12:18.317Z,4.10
2023-01-22T14:14:45.076Z,3.43
2023-01-22T14:17:21.883Z,3.90
2023-01-22T14:19:48.188Z,3.77
2023-01-22T14:22:14.490Z,3.53
2023-01-22T14:24:40.879Z,3.97
2023-01-22T14:27:07.287Z,3.30
2023-01-22T14:29:33.718Z,4.60
2023-01-22T14:32:00.094Z,4.53
2023-01-22T14:34:26.404Z,4.83
2023-01-22T14:36:54.113Z,4.70
2023-01-22T14:39:21.681Z,4.53
2023-01-22T14:41:51.402Z,4.27
2023-01-22T14:44:17.821Z,3.90
2023-01-22T14:46:44.186Z,4.53
2023-01-22T14:49:10.578Z,5.60
2023-01-22T14:51:36.953Z,5.00
2023-01-22T14:54:03.287Z,5.40
2023-01-22T14:56:29.574Z,4.90
2023-01-22T14:58:55.889Z,5.40
2023-01-22T15:01:22.736Z,5.03
2023-01-22T15:03:49.076Z,4.83
2023-01-22T15:06:15.400Z,5.13
2023-01-22T15:08:41.731Z,4.93
2023-01-22T15:11:08.128Z,5.20
2023-01-22T15:13:34.602Z,4.20
2023-01-22T15:16:08.240Z,5.00
2023-01-22T15:18:38.111Z,5.20
2023-01-22T15:21:04.682Z,4.87
2023-01-22T15:23:31.578Z,5.60
2023-01-22T15:26:09.657Z,5.47
2023-01-22T15:28:36.211Z,5.13
2023-01-22T15:31:10.390Z,5.33
2023-01-22T15:33:37.114Z,5.10
2023-01-22T15:36:04.665Z,4.77
2023-01-22T15:38:31.012Z,8.93
2023-01-22T15:41:07.833Z,6.10
2023-01-22T15:43:34.288Z,5.43
2023-01-22T15:46:00.712Z,4.87
2023-01-22T15:48:27.041Z,4.90
2023-01-22T15:50:53.451Z,5.43
2023-01-22T15:53:19.979Z,5.83
2023-01-22T15:55:49.774Z,5.57
2023-01-22T15:58:16.093Z,5.37
2023-01-22T16:00:42.433Z,5.43
2023-01-22T16:03:09.903Z,5.33
2023-01-22T16:05:36.302Z,5.50
2023-01-22T16:08:03.380Z,6.33
2023-01-22T16:10:29.763Z,5.77
2023-01-22T16:12:56.151Z,5.97
2023-01-22T16:15:22.467Z,5.30
2023-01-22T16:17:48.834Z,6.00
2023-01-22T16:20:15.416Z,5.93
2023-01-22T16:22:42.983Z,6.37
2023-01-22T16:25:09.431Z,5.60
2023-01-22T16:27:36.852Z,5.83
2023-01-22T16:30:03.713Z,5.80
2023-01-22T16:32:30.196Z,5.37
2023-01-22T16:34:56.746Z,5.83
2023-01-22T16:37:23.104Z,5.87
2023-01-22T16:39:49.397Z,6.17
2023-01-22T16:42:15.793Z,4.70
2023-01-22T16:44:42.130Z,5.17
2023-01-22T16:47:08.454Z,5.63
2023-01-22T16:49:34.795Z,5.00
2023-01-22T16:52:16.641Z,6.30
2023-01-22T16:54:48.022Z,5.97
2023-01-22T16:57:15.602Z,4.90
2023-01-22T16:59:41.988Z,5.70
2023-01-22T17:02:13.093Z,6.43
2023-01-22T17:04:39.582Z,6.30
2023-01-22T17:07:06.245Z,5.80
2023-01-22T17:09:33.188Z,5.47
2023-01-22T17:12:00.650Z,5.67
2023-01-22T17:14:28.449Z,6.50
2023-01-22T17:16:54.835Z,6.60
2023-01-22T17:19:21.438Z,5.67
2023-01-22T17:21:49.721Z,6.40
2023-01-22T17:24:16.111Z,5.47
2023-01-22T17:26:42.532Z,5.07
2023-01-22T17:29:09.560Z,5.27
2023-01-22T17:31:37.046Z,5.57
2023-01-22T17:34:04.182Z,5.17
2023-01-22T17:36:31.159Z,5.47
2023-01-22T17:38:57.655Z,5.87
2023-01-22T17:41:24.901Z,5.60
2023-01-22T17:43:52.455Z,6.30
2023-01-22T17:46:20.158Z,6.10
2023-01-22T17:48:47.348Z,6.87
2023-01-22T17:51:15.052Z,5.70
2023-01-22T17:53:42.299Z,5.43
2023-01-22T17:56:13.272Z,6.13
2023-01-22T17:58:44.139Z,5.17
2023-01-22T18:01:11.171Z,5.77
2023-01-22T18:03:37.732Z,5.20
2023-01-22T18:06:04.316Z,5.70
2023-01-22T18:08:31.235Z,5.83
2023-01-22T18:10:58.075Z,5.50
2023-01-22T18:13:24.963Z,5.60
2023-01-22T18:15:51.884Z,5.67
2023-01-22T18:18:18.359Z,5.50
2023-01-22T18:20:47.945Z,5.57
2023-01-22T18:23:16.407Z,6.17
2023-01-22T18:25:46.703Z,5.93
2023-01-22T18:28:14.119Z,6.23
2023-01-22T18:30:40.747Z,7.07
2023-01-22T18:33:07.166Z,6.60
2023-01-22T18:35:34.676Z,5.93
2023-01-22T18:38:01.476Z,7.33
2023-01-22T18:40:30.928Z,6.03
2023-01-22T18:42:57.495Z,6.77
2023-01-22T18:45:24.367Z,7.33
2023-01-22T18:47:54.451Z,6.93
2023-01-22T18:50:21.394Z,7.60
2023-01-22T18:52:47.945Z,8.20
2023-01-22T18:55:15.967Z,9.80
2023-01-22T18:57:44.775Z,7.93
2023-01-22T19:00:13.060Z,8.33
2023-01-22T19:02:39.353Z,7.50
2023-01-22T19:05:06.552Z,6.90
2023-01-22T19:07:38.070Z,7.17
2023-01-22T19:10:05.909Z,6.70
2023-01-22T19:12:32.197Z,7.67
2023-01-22T19:14:58.740Z,6.37
2023-01-22T19:17:25.691Z,6.97
2023-01-22T19:19:52.043Z,8.27
2023-01-22T19:22:18.388Z,8.07
2023-01-22T19:24:45.587Z,8.73
2023-01-22T19:27:12.590Z,7.83
2023-01-22T19:29:39.687Z,7.13
2023-01-22T19:32:06.468Z,7.13
2023-01-22T19:34:32.867Z,7.00
2023-01-22T19:37:02.269Z,8.03
2023-01-22T19:39:29.078Z,8.13
2023-01-22T19:41:55.659Z,9.13
2023-01-22T19:44:22.220Z,12.67
2023-01-22T19:46:48.715Z,9.77
2023-01-22T19:49:15.121Z,8.00
2023-01-22T19:51:41.553Z,8.50
2023-01-22T19:54:08.813Z,7.97
2023-01-22T19:56:36.132Z,8.87
2023-01-22T19:59:05.960Z,8.03
2023-01-22T20:01:33.447Z,9.00
2023-01-22T20:04:00.053Z,8.37
2023-01-22T20:06:26.686Z,8.90
2023-01-22T20:08:54.668Z,10.40
2023-01-22T20:11:20.969Z,11.27
2023-01-22T20:13:48.758Z,9.13
2023-01-22T20:16:19.205Z,8.97
2023-01-22T20:18:45.612Z,9.63
2023-01-22T20:21:13.049Z,8.93
2023-01-22T20:23:39.369Z,9.03
2023-01-22T20:26:07.532Z,9.57
2023-01-22T20:28:34.231Z,9.13
2023-01-22T20:31:02.231Z,8.43
2023-01-22T20:33:28.731Z,8.83
2023-01-22T20:35:58.696Z,7.50
2023-01-22T20:38:25.108Z,8.07
2023-01-22T20:40:51.809Z,8.47
2023-01-22T20:43:19.931Z,7.00
2023-01-22T20:45:57.294Z,8.90
2023-01-22T20:48:23.682Z,8.40
2023-01-22T20:50:50.036Z,7.50
2023-01-22T20:53:16.377Z,8.30
2023-01-22T20:55:42.680Z,7.93
2023-01-22T20:58:08.986Z,9.60
2023-01-22T21:00:35.336Z,9.73
2023-01-22T21:03:01.800Z,7.53
2023-01-22T21:05:29.192Z,8.13
2023-01-22T21:07:55.715Z,7.73
2023-01-22T21:10:22.111Z,7.70
2023-01-22T21:12:48.431Z,6.63
2023-01-22T21:15:14.912Z,7.63
2023-01-22T21:17:41.268Z,7.90
2023-01-22T21:20:08.303Z,8.13
2023-01-22T21:22:35.940Z,7.93
2023-01-22T21:25:02.303Z,7.20
2023-01-22T21:27:28.680Z,7.77
2023-01-22T21:29:55.258Z,7.57
2023-01-22T21:32:21.627Z,7.67
2023-01-22T21:34:48.231Z,8.53
2023-01-22T21:37:14.622Z,7.30
2023-01-22T21:39:44.974Z,7.93
2023-01-22T21:42:31.365Z,7.57
2023-01-22T21:45:16.286Z,7.70
2023-01-22T21:47:42.684Z,7.90
2023-01-22T21:50:09.443Z,7.63
2023-01-22T21:52:36.033Z,6.40
2023-01-22T21:55:02.367Z,7.43
2023-01-22T21:57:29.304Z,7.47
2023-01-22T21:59:55.658Z,7.73
2023-01-22T22:02:22.354Z,7.60
2023-01-22T22:04:48.832Z,8.00
2023-01-22T22:07:15.228Z,8.13
2023-01-22T22:09:42.245Z,7.43
2023-01-22T22:12:09.826Z,8.53
2023-01-22T22:14:36.315Z,8.60
2023-01-22T22:17:02.745Z,9.00
2023-01-22T22:19:29.142Z,8.23
2023-01-22T22:21:55.567Z,7.60
2023-01-22T22:24:22.184Z,8.03
2023-01-22T22:26:48.555Z,7.63
2023-01-22T22:29:14.964Z,7.30
2023-01-22T22:31:41.446Z,7.87
2023-01-22T22:34:07.905Z,8.03
2023-01-22T22:36:34.348Z,8.53
2023-01-22T22:39:01.372Z,8.97
2023-01-22T22:41:29.626Z,7.90
2023-01-22T22:43:56.632Z,9.20
2023-01-22T22:46:22.960Z,8.77
2023-01-22T22:48:49.863Z,8.03
2023-01-22T22:51:20.027Z,8.67
2023-01-22T22:53:47.003Z,8.40
2023-01-22T22:56:13.802Z,8.57
2023-01-22T22:58:40.148Z,8.03
2023-01-22T23:01:10.982Z,9.07
2023-01-22T23:03:37.849Z,9.13
2023-01-22T23:06:08.196Z,7.57
2023-01-22T23:08:36.065Z,8.93
2023-01-22T23:11:03.722Z,9.00
2023-01-22T23:13:30.139Z,7.27
2023-01-22T23:16:00.944Z,7.43
2023-01-22T23:18:27.399Z,8.80
2023-01-22T23:20:53.784Z,7.97
2023-01-22T23:23:20.129Z,8.80
2023-01-22T23:25:46.480Z,8.70
2023-01-22T23:28:12.788Z,7.60
2023-01-22T23:30:39.477Z,9.13
2023-01-22T23:33:05.851Z,8.00
2023-01-22T23:35:33.256Z,8.20
2023-01-22T23:37:59.582Z,7.57
2023-01-22T23:40:25.911Z,8.13
2023-01-22T23:42:52.217Z,9.03
2023-01-22T23:45:18.647Z,8.37
2023-01-22T23:47:44.946Z,8.83
2023-01-22T23:50:11.268Z,8.87
2023-01-22T23:52:37.695Z,8.43
2023-01-22T23:55:04.269Z,7.97
2023-01-22T23:57:30.553Z,9.20
2023-01-22T23:59:56.974Z,8.80
